sensor_id;sensor_type;location;lat;lon;timestamp;temperature;humidity
25302;DHT22;13243;50.888;4.724;2023-06-14T00:03:25;21.80;93.70
25302;DHT22;13243;50.888;4.724;2023-06-14T00:08:27;21.70;94.20
25302;DHT22;13243;50.888;4.724;2023-06-14T00:13:29;21.70;94.30
25302;DHT22;13243;50.888;4.724;2023-06-14T00:18:31;21.60;93.90
25302;DHT22;13243;50.888;4.724;2023-06-14T00:23:33;21.40;94.40
25302;DHT22;13243;50.888;4.724;2023-06-14T00:28:35;21.30;94.60
25302;DHT22;13243;50.888;4.724;2023-06-14T00:33:37;21.20;94.50
25302;DHT22;13243;50.888;4.724;2023-06-14T00:38:39;21.20;94.80
25302;DHT22;13243;50.888;4.724;2023-06-14T00:43:41;21.10;94.70
25302;DHT22;13243;50.888;4.724;2023-06-14T00:48:43;21.00;94.90
25302;DHT22;13243;50.888;4.724;2023-06-14T00:53:45;20.90;95.20
25302;DHT22;13243;50.888;4.724;2023-06-14T00:58:50;20.80;95.10
25302;DHT22;13243;50.888;4.724;2023-06-14T01:03:52;20.70;95.60
25302;DHT22;13243;50.888;4.724;2023-06-14T01:14:02;20.40;96.10
25302;DHT22;13243;50.888;4.724;2023-06-14T01:19:06;20.50;96.40
25302;DHT22;13243;50.888;4.724;2023-06-14T01:24:10;20.50;96.40
25302;DHT22;13243;50.888;4.724;2023-06-14T01:29:15;20.60;96.20
25302;DHT22;13243;50.888;4.724;2023-06-14T01:34:20;20.70;96.50
25302;DHT22;13243;50.888;4.724;2023-06-14T01:39:23;20.20;97.00
25302;DHT22;13243;50.888;4.724;2023-06-14T01:44:26;20.00;97.30
25302;DHT22;13243;50.888;4.724;2023-06-14T01:49:28;20.30;96.20
25302;DHT22;13243;50.888;4.724;2023-06-14T01:54:30;20.20;96.70
25302;DHT22;13243;50.888;4.724;2023-06-14T01:59:32;20.00;97.20
25302;DHT22;13243;50.888;4.724;2023-06-14T02:04:36;19.80;97.10
25302;DHT22;13243;50.888;4.724;2023-06-14T02:09:38;19.90;97.20
25302;DHT22;13243;50.888;4.724;2023-06-14T02:14:40;19.90;97.40
25302;DHT22;13243;50.888;4.724;2023-06-14T02:19:42;19.80;97.40
25302;DHT22;13243;50.888;4.724;2023-06-14T02:24:44;19.70;97.60
25302;DHT22;13243;50.888;4.724;2023-06-14T02:29:47;19.90;97.40
25302;DHT22;13243;50.888;4.724;2023-06-14T02:34:49;20.00;97.60
25302;DHT22;13243;50.888;4.724;2023-06-14T02:39:51;19.50;98.10
25302;DHT22;13243;50.888;4.724;2023-06-14T02:44:53;19.40;98.20
25302;DHT22;13243;50.888;4.724;2023-06-14T02:49:55;19.10;98.60
25302;DHT22;13243;50.888;4.724;2023-06-14T02:54:57;19.20;98.90
25302;DHT22;13243;50.888;4.724;2023-06-14T02:59:59;19.00;98.80
25302;DHT22;13243;50.888;4.724;2023-06-14T03:05:01;18.80;99.30
25302;DHT22;13243;50.888;4.724;2023-06-14T03:10:04;18.70;99.20
25302;DHT22;13243;50.888;4.724;2023-06-14T03:15:07;18.80;99.60
25302;DHT22;13243;50.888;4.724;2023-06-14T03:20:10;18.50;99.70
25302;DHT22;13243;50.888;4.724;2023-06-14T03:25:12;18.50;99.90
25302;DHT22;13243;50.888;4.724;2023-06-14T03:30:14;18.60;99.90
25302;DHT22;13243;50.888;4.724;2023-06-14T03:35:17;18.40;99.90
25302;DHT22;13243;50.888;4.724;2023-06-14T03:40:21;18.40;99.90
25302;DHT22;13243;50.888;4.724;2023-06-14T03:45:23;18.50;99.90
25302;DHT22;13243;50.888;4.724;2023-06-14T03:50:25;18.30;99.90
25302;DHT22;13243;50.888;4.724;2023-06-14T03:55:27;18.30;99.90
25302;DHT22;13243;50.888;4.724;2023-06-14T04:00:32;18.30;99.90
25302;DHT22;13243;50.888;4.724;2023-06-14T04:05:33;18.20;99.90
25302;DHT22;13243;50.888;4.724;2023-06-14T04:10:36;18.30;99.90
25302;DHT22;13243;50.888;4.724;2023-06-14T04:15:38;18.40;99.90
25302;DHT22;13243;50.888;4.724;2023-06-14T04:20:43;18.40;99.90
25302;DHT22;13243;50.888;4.724;2023-06-14T04:25:45;18.40;99.90
25302;DHT22;13243;50.888;4.724;2023-06-14T04:30:49;18.50;99.90
25302;DHT22;13243;50.888;4.724;2023-06-14T04:35:51;18.50;99.90
25302;DHT22;13243;50.888;4.724;2023-06-14T04:40:55;18.50;99.90
25302;DHT22;13243;50.888;4.724;2023-06-14T04:45:59;18.70;99.90
25302;DHT22;13243;50.888;4.724;2023-06-14T04:51:03;18.90;99.90
25302;DHT22;13243;50.888;4.724;2023-06-14T04:56:05;18.90;99.90
25302;DHT22;13243;50.888;4.724;2023-06-14T05:01:07;19.10;99.90
25302;DHT22;13243;50.888;4.724;2023-06-14T05:06:11;19.20;99.90
25302;DHT22;13243;50.888;4.724;2023-06-14T05:11:13;19.20;99.90
25302;DHT22;13243;50.888;4.724;2023-06-14T05:16:15;19.30;99.90
25302;DHT22;13243;50.888;4.724;2023-06-14T05:21:21;19.40;99.90
25302;DHT22;13243;50.888;4.724;2023-06-14T05:26:23;19.30;99.90
25302;DHT22;13243;50.888;4.724;2023-06-14T05:31:30;19.30;99.90
25302;DHT22;13243;50.888;4.724;2023-06-14T05:36:32;19.50;99.90
25302;DHT22;13243;50.888;4.724;2023-06-14T05:41:34;19.50;99.90
25302;DHT22;13243;50.888;4.724;2023-06-14T05:46:36;19.70;99.90
25302;DHT22;13243;50.888;4.724;2023-06-14T05:51:38;19.80;99.90
25302;DHT22;13243;50.888;4.724;2023-06-14T05:56:40;19.90;99.90
25302;DHT22;13243;50.888;4.724;2023-06-14T06:01:42;20.10;99.40
25302;DHT22;13243;50.888;4.724;2023-06-14T06:06:45;20.30;99.90
25302;DHT22;13243;50.888;4.724;2023-06-14T06:11:48;20.30;98.80
25302;DHT22;13243;50.888;4.724;2023-06-14T06:16:55;20.70;98.90
25302;DHT22;13243;50.888;4.724;2023-06-14T06:21:56;20.70;99.40
25302;DHT22;13243;50.888;4.724;2023-06-14T06:26:58;20.80;99.20
25302;DHT22;13243;50.888;4.724;2023-06-14T06:32:01;21.00;98.50
25302;DHT22;13243;50.888;4.724;2023-06-14T06:37:03;21.20;98.50
25302;DHT22;13243;50.888;4.724;2023-06-14T06:42:05;21.50;98.30
25302;DHT22;13243;50.888;4.724;2023-06-14T06:47:08;21.70;98.70
25302;DHT22;13243;50.888;4.724;2023-06-14T06:52:11;21.90;98.40
25302;DHT22;13243;50.888;4.724;2023-06-14T06:57:13;21.80;98.10
25302;DHT22;13243;50.888;4.724;2023-06-14T07:02:16;22.00;98.30
25302;DHT22;13243;50.888;4.724;2023-06-14T07:07:18;22.10;98.50
25302;DHT22;13243;50.888;4.724;2023-06-14T07:12:20;22.40;98.70
25302;DHT22;13243;50.888;4.724;2023-06-14T07:17:22;22.60;98.00
25302;DHT22;13243;50.888;4.724;2023-06-14T07:22:24;22.80;97.70
25302;DHT22;13243;50.888;4.724;2023-06-14T07:27:26;22.80;97.80
25302;DHT22;13243;50.888;4.724;2023-06-14T07:32:27;23.00;97.90
25302;DHT22;13243;50.888;4.724;2023-06-14T07:37:29;23.00;97.80
25302;DHT22;13243;50.888;4.724;2023-06-14T07:42:34;23.00;98.20
25302;DHT22;13243;50.888;4.724;2023-06-14T07:47:36;23.30;97.50
25302;DHT22;13243;50.888;4.724;2023-06-14T07:52:39;23.40;98.20
25302;DHT22;13243;50.888;4.724;2023-06-14T07:57:41;23.40;98.20
25302;DHT22;13243;50.888;4.724;2023-06-14T08:02:44;23.70;97.80
25302;DHT22;13243;50.888;4.724;2023-06-14T08:07:46;23.80;97.40
25302;DHT22;13243;50.888;4.724;2023-06-14T08:12:48;23.90;97.40
25302;DHT22;13243;50.888;4.724;2023-06-14T08:17:51;23.90;97.80
25302;DHT22;13243;50.888;4.724;2023-06-14T08:22:53;23.90;97.70
25302;DHT22;13243;50.888;4.724;2023-06-14T08:27:59;24.10;97.50
25302;DHT22;13243;50.888;4.724;2023-06-14T08:33:01;24.40;96.80
25302;DHT22;13243;50.888;4.724;2023-06-14T08:38:16;24.70;97.50
25302;DHT22;13243;50.888;4.724;2023-06-14T08:43:19;24.70;97.00
25302;DHT22;13243;50.888;4.724;2023-06-14T08:48:22;25.20;97.10
25302;DHT22;13243;50.888;4.724;2023-06-14T08:53:24;24.80;96.40
25302;DHT22;13243;50.888;4.724;2023-06-14T08:58:29;25.00;96.20
25302;DHT22;13243;50.888;4.724;2023-06-14T09:03:32;25.10;95.90
25302;DHT22;13243;50.888;4.724;2023-06-14T09:08:35;25.20;95.50
25302;DHT22;13243;50.888;4.724;2023-06-14T09:13:37;25.40;95.20
25302;DHT22;13243;50.888;4.724;2023-06-14T09:18:41;25.30;95.20
25302;DHT22;13243;50.888;4.724;2023-06-14T09:23:47;25.60;94.20
25302;DHT22;13243;50.888;4.724;2023-06-14T09:28:50;25.60;93.90
25302;DHT22;13243;50.888;4.724;2023-06-14T09:33:53;25.50;93.40
25302;DHT22;13243;50.888;4.724;2023-06-14T09:39:01;25.80;94.30
25302;DHT22;13243;50.888;4.724;2023-06-14T09:44:08;25.80;94.20
25302;DHT22;13243;50.888;4.724;2023-06-14T09:49:16;25.90;93.70
25302;DHT22;13243;50.888;4.724;2023-06-14T09:54:22;26.40;93.10
25302;DHT22;13243;50.888;4.724;2023-06-14T09:59:29;26.10;93.10
25302;DHT22;13243;50.888;4.724;2023-06-14T10:04:34;26.20;93.90
25302;DHT22;13243;50.888;4.724;2023-06-14T10:09:36;26.90;94.50
25302;DHT22;13243;50.888;4.724;2023-06-14T10:14:39;27.00;93.30
25302;DHT22;13243;50.888;4.724;2023-06-14T10:19:50;27.10;93.30
25302;DHT22;13243;50.888;4.724;2023-06-14T10:24:55;27.30;93.20
25302;DHT22;13243;50.888;4.724;2023-06-14T10:35:06;27.50;92.30
25302;DHT22;13243;50.888;4.724;2023-06-14T10:40:09;27.60;92.10
25302;DHT22;13243;50.888;4.724;2023-06-14T10:45:27;27.70;91.60
25302;DHT22;13243;50.888;4.724;2023-06-14T10:50:29;27.30;91.60
25302;DHT22;13243;50.888;4.724;2023-06-14T10:55:35;27.00;91.50
25302;DHT22;13243;50.888;4.724;2023-06-14T11:00:37;27.40;91.40
25302;DHT22;13243;50.888;4.724;2023-06-14T11:05:56;27.60;91.00
25302;DHT22;13243;50.888;4.724;2023-06-14T11:11:06;27.80;90.20
25302;DHT22;13243;50.888;4.724;2023-06-14T11:16:16;28.00;91.10
25302;DHT22;13243;50.888;4.724;2023-06-14T11:21:19;28.10;90.40
25302;DHT22;13243;50.888;4.724;2023-06-14T11:26:27;28.10;91.00
25302;DHT22;13243;50.888;4.724;2023-06-14T11:31:30;28.70;90.90
25302;DHT22;13243;50.888;4.724;2023-06-14T11:36:34;28.70;90.30
25302;DHT22;13243;50.888;4.724;2023-06-14T11:41:42;28.70;90.70
25302;DHT22;13243;50.888;4.724;2023-06-14T11:46:44;28.50;90.00
25302;DHT22;13243;50.888;4.724;2023-06-14T11:51:47;29.00;90.50
25302;DHT22;13243;50.888;4.724;2023-06-14T11:56:48;28.60;90.40
25302;DHT22;13243;50.888;4.724;2023-06-14T12:01:53;29.00;90.00
25302;DHT22;13243;50.888;4.724;2023-06-14T12:07:08;29.20;89.40
25302;DHT22;13243;50.888;4.724;2023-06-14T12:12:13;29.60;89.30
25302;DHT22;13243;50.888;4.724;2023-06-14T12:17:17;29.60;90.10
25302;DHT22;13243;50.888;4.724;2023-06-14T12:22:19;29.30;90.00
25302;DHT22;13243;50.888;4.724;2023-06-14T12:27:21;29.50;89.40
25302;DHT22;13243;50.888;4.724;2023-06-14T12:32:25;29.50;89.30
25302;DHT22;13243;50.888;4.724;2023-06-14T12:37:27;29.50;87.20
25302;DHT22;13243;50.888;4.724;2023-06-14T12:42:29;30.30;89.60
25302;DHT22;13243;50.888;4.724;2023-06-14T12:47:31;30.30;87.50
25302;DHT22;13243;50.888;4.724;2023-06-14T12:52:33;29.90;88.80
25302;DHT22;13243;50.888;4.724;2023-06-14T12:57:38;30.00;88.30
25302;DHT22;13243;50.888;4.724;2023-06-14T13:02:39;30.60;86.30
25302;DHT22;13243;50.888;4.724;2023-06-14T13:07:42;30.60;87.70
25302;DHT22;13243;50.888;4.724;2023-06-14T13:12:44;31.00;86.10
25302;DHT22;13243;50.888;4.724;2023-06-14T13:17:46;31.30;85.40
25302;DHT22;13243;50.888;4.724;2023-06-14T13:22:50;31.40;84.90
25302;DHT22;13243;50.888;4.724;2023-06-14T13:27:52;30.70;84.30
25302;DHT22;13243;50.888;4.724;2023-06-14T13:32:54;30.70;84.20
25302;DHT22;13243;50.888;4.724;2023-06-14T13:37:57;31.30;83.70
25302;DHT22;13243;50.888;4.724;2023-06-14T13:42:59;32.00;83.40
25302;DHT22;13243;50.888;4.724;2023-06-14T13:48:01;31.80;81.30
25302;DHT22;13243;50.888;4.724;2023-06-14T13:53:03;32.20;82.40
25302;DHT22;13243;50.888;4.724;2023-06-14T13:58:05;32.10;81.80
25302;DHT22;13243;50.888;4.724;2023-06-14T14:03:07;31.70;81.80
25302;DHT22;13243;50.888;4.724;2023-06-14T14:08:11;32.40;81.80
25302;DHT22;13243;50.888;4.724;2023-06-14T14:13:12;32.80;81.30
25302;DHT22;13243;50.888;4.724;2023-06-14T14:18:14;31.80;81.90
25302;DHT22;13243;50.888;4.724;2023-06-14T14:23:17;32.80;79.60
25302;DHT22;13243;50.888;4.724;2023-06-14T14:28:19;33.10;82.20
25302;DHT22;13243;50.888;4.724;2023-06-14T14:33:22;33.10;81.90
25302;DHT22;13243;50.888;4.724;2023-06-14T14:38:24;33.50;84.10
25302;DHT22;13243;50.888;4.724;2023-06-14T14:43:26;33.10;82.10
25302;DHT22;13243;50.888;4.724;2023-06-14T14:48:28;33.00;82.50
25302;DHT22;13243;50.888;4.724;2023-06-14T14:53:30;33.60;83.50
25302;DHT22;13243;50.888;4.724;2023-06-14T14:58:32;33.70;81.00
25302;DHT22;13243;50.888;4.724;2023-06-14T15:03:33;33.70;81.90
25302;DHT22;13243;50.888;4.724;2023-06-14T15:08:56;34.00;81.30
25302;DHT22;13243;50.888;4.724;2023-06-14T15:13:58;33.50;80.90
25302;DHT22;13243;50.888;4.724;2023-06-14T15:19:00;34.00;81.10
25302;DHT22;13243;50.888;4.724;2023-06-14T15:24:02;34.20;81.70
25302;DHT22;13243;50.888;4.724;2023-06-14T15:29:04;34.50;79.90
25302;DHT22;13243;50.888;4.724;2023-06-14T15:34:07;34.00;80.50
25302;DHT22;13243;50.888;4.724;2023-06-14T15:39:09;33.40;80.40
25302;DHT22;13243;50.888;4.724;2023-06-14T15:44:11;33.90;79.90
25302;DHT22;13243;50.888;4.724;2023-06-14T15:49:13;34.50;79.90
25302;DHT22;13243;50.888;4.724;2023-06-14T15:54:15;34.20;80.90
25302;DHT22;13243;50.888;4.724;2023-06-14T15:59:17;34.50;79.60
25302;DHT22;13243;50.888;4.724;2023-06-14T16:04:19;33.80;78.50
25302;DHT22;13243;50.888;4.724;2023-06-14T16:09:21;34.10;78.50
25302;DHT22;13243;50.888;4.724;2023-06-14T16:14:23;33.90;79.10
25302;DHT22;13243;50.888;4.724;2023-06-14T16:19:25;34.50;79.00
25302;DHT22;13243;50.888;4.724;2023-06-14T16:24:27;34.50;78.30
25302;DHT22;13243;50.888;4.724;2023-06-14T16:29:29;34.30;77.90
25302;DHT22;13243;50.888;4.724;2023-06-14T16:34:31;34.30;77.80
25302;DHT22;13243;50.888;4.724;2023-06-14T16:39:34;34.20;76.60
25302;DHT22;13243;50.888;4.724;2023-06-14T16:44:36;34.50;77.10
25302;DHT22;13243;50.888;4.724;2023-06-14T16:49:38;34.00;76.50
25302;DHT22;13243;50.888;4.724;2023-06-14T16:54:40;33.80;76.70
25302;DHT22;13243;50.888;4.724;2023-06-14T16:59:42;34.10;76.80
25302;DHT22;13243;50.888;4.724;2023-06-14T17:04:44;34.20;77.30
25302;DHT22;13243;50.888;4.724;2023-06-14T17:09:46;33.80;77.40
25302;DHT22;13243;50.888;4.724;2023-06-14T17:14:48;33.80;77.90
25302;DHT22;13243;50.888;4.724;2023-06-14T17:19:53;34.00;76.40
25302;DHT22;13243;50.888;4.724;2023-06-14T17:24:54;33.60;76.50
25302;DHT22;13243;50.888;4.724;2023-06-14T17:29:57;32.90;76.40
25302;DHT22;13243;50.888;4.724;2023-06-14T17:34:58;33.20;77.90
25302;DHT22;13243;50.888;4.724;2023-06-14T17:40:00;33.10;78.10
25302;DHT22;13243;50.888;4.724;2023-06-14T17:45:02;32.80;78.10
25302;DHT22;13243;50.888;4.724;2023-06-14T17:50:05;32.10;78.20
25302;DHT22;13243;50.888;4.724;2023-06-14T17:55:07;31.60;78.60
25302;DHT22;13243;50.888;4.724;2023-06-14T18:00:10;30.80;78.10
25302;DHT22;13243;50.888;4.724;2023-06-14T18:05:12;31.00;78.60
25302;DHT22;13243;50.888;4.724;2023-06-14T18:10:13;30.70;79.00
25302;DHT22;13243;50.888;4.724;2023-06-14T18:15:17;30.10;79.60
25302;DHT22;13243;50.888;4.724;2023-06-14T18:20:20;29.70;78.70
25302;DHT22;13243;50.888;4.724;2023-06-14T18:25:22;29.40;79.60
25302;DHT22;13243;50.888;4.724;2023-06-14T18:30:25;29.00;79.10
25302;DHT22;13243;50.888;4.724;2023-06-14T18:35:26;28.90;79.30
25302;DHT22;13243;50.888;4.724;2023-06-14T18:40:30;28.50;79.70
25302;DHT22;13243;50.888;4.724;2023-06-14T18:45:32;28.50;80.30
25302;DHT22;13243;50.888;4.724;2023-06-14T18:50:34;28.30;79.80
25302;DHT22;13243;50.888;4.724;2023-06-14T18:55:38;28.00;81.10
25302;DHT22;13243;50.888;4.724;2023-06-14T19:00:40;27.90;81.30
25302;DHT22;13243;50.888;4.724;2023-06-14T19:05:42;27.70;81.90
25302;DHT22;13243;50.888;4.724;2023-06-14T19:10:44;27.60;82.30
25302;DHT22;13243;50.888;4.724;2023-06-14T19:15:46;27.50;83.30
25302;DHT22;13243;50.888;4.724;2023-06-14T19:20:52;27.40;84.20
25302;DHT22;13243;50.888;4.724;2023-06-14T19:25:54;27.00;84.00
25302;DHT22;13243;50.888;4.724;2023-06-14T19:30:56;26.80;83.70
25302;DHT22;13243;50.888;4.724;2023-06-14T19:35:58;26.70;84.20
25302;DHT22;13243;50.888;4.724;2023-06-14T19:41:00;26.60;84.60
25302;DHT22;13243;50.888;4.724;2023-06-14T19:46:02;26.50;85.80
25302;DHT22;13243;50.888;4.724;2023-06-14T19:51:05;26.20;86.20
25302;DHT22;13243;50.888;4.724;2023-06-14T19:56:08;25.90;86.70
25302;DHT22;13243;50.888;4.724;2023-06-14T20:01:10;25.80;88.50
25302;DHT22;13243;50.888;4.724;2023-06-14T20:06:13;25.50;87.40
25302;DHT22;13243;50.888;4.724;2023-06-14T20:11:15;25.40;88.30
25302;DHT22;13243;50.888;4.724;2023-06-14T20:16:18;25.40;88.70
25302;DHT22;13243;50.888;4.724;2023-06-14T20:21:20;25.20;88.40
25302;DHT22;13243;50.888;4.724;2023-06-14T20:26:22;25.00;88.80
25302;DHT22;13243;50.888;4.724;2023-06-14T20:31:24;24.90;88.70
25302;DHT22;13243;50.888;4.724;2023-06-14T20:36:26;24.90;89.10
25302;DHT22;13243;50.888;4.724;2023-06-14T20:41:31;24.80;89.40
25302;DHT22;13243;50.888;4.724;2023-06-14T20:46:33;24.60;89.20
25302;DHT22;13243;50.888;4.724;2023-06-14T20:51:37;24.50;90.10
25302;DHT22;13243;50.888;4.724;2023-06-14T20:56:39;24.50;90.10
25302;DHT22;13243;50.888;4.724;2023-06-14T21:01:41;24.30;90.20
25302;DHT22;13243;50.888;4.724;2023-06-14T21:06:44;24.10;90.20
25302;DHT22;13243;50.888;4.724;2023-06-14T21:11:46;24.00;90.40
25302;DHT22;13243;50.888;4.724;2023-06-14T21:16:48;23.90;90.70
25302;DHT22;13243;50.888;4.724;2023-06-14T21:21:52;23.70;91.30
25302;DHT22;13243;50.888;4.724;2023-06-14T21:26:54;23.50;90.90
25302;DHT22;13243;50.888;4.724;2023-06-14T21:31:56;23.30;91.10
25302;DHT22;13243;50.888;4.724;2023-06-14T21:36:58;23.20;91.70
25302;DHT22;13243;50.888;4.724;2023-06-14T21:42:00;23.20;91.70
25302;DHT22;13243;50.888;4.724;2023-06-14T21:47:02;23.10;91.90
25302;DHT22;13243;50.888;4.724;2023-06-14T21:52:06;23.00;91.80
25302;DHT22;13243;50.888;4.724;2023-06-14T21:57:08;22.80;91.90
25302;DHT22;13243;50.888;4.724;2023-06-14T22:02:10;22.70;92.20
25302;DHT22;13243;50.888;4.724;2023-06-14T22:07:12;22.60;92.30
25302;DHT22;13243;50.888;4.724;2023-06-14T22:12:16;22.50;92.60
25302;DHT22;13243;50.888;4.724;2023-06-14T22:17:19;22.40;92.80
25302;DHT22;13243;50.888;4.724;2023-06-14T22:22:24;22.30;92.70
25302;DHT22;13243;50.888;4.724;2023-06-14T22:27:26;22.10;92.70
25302;DHT22;13243;50.888;4.724;2023-06-14T22:32:29;22.10;93.00
25302;DHT22;13243;50.888;4.724;2023-06-14T22:37:34;22.00;93.00
25302;DHT22;13243;50.888;4.724;2023-06-14T22:42:40;21.80;93.10
25302;DHT22;13243;50.888;4.724;2023-06-14T22:47:43;21.70;93.30
25302;DHT22;13243;50.888;4.724;2023-06-14T22:52:45;21.70;93.50
25302;DHT22;13243;50.888;4.724;2023-06-14T22:57:47;21.60;93.40
25302;DHT22;13243;50.888;4.724;2023-06-14T23:02:50;21.50;93.70
25302;DHT22;13243;50.888;4.724;2023-06-14T23:07:52;21.30;93.70
25302;DHT22;13243;50.888;4.724;2023-06-14T23:12:57;21.10;94.00
25302;DHT22;13243;50.888;4.724;2023-06-14T23:17:59;21.20;94.10
25302;DHT22;13243;50.888;4.724;2023-06-14T23:23:01;21.10;94.30
25302;DHT22;13243;50.888;4.724;2023-06-14T23:28:06;20.90;94.40
25302;DHT22;13243;50.888;4.724;2023-06-14T23:33:12;20.90;94.40
25302;DHT22;13243;50.888;4.724;2023-06-14T23:38:14;20.70;94.50
25302;DHT22;13243;50.888;4.724;2023-06-14T23:43:17;20.70;94.80
25302;DHT22;13243;50.888;4.724;2023-06-14T23:48:24;20.60;94.90
25302;DHT22;13243;50.888;4.724;2023-06-14T23:53:29;20.50;95.00
25302;DHT22;13243;50.888;4.724;2023-06-14T23:58:34;20.40;95.00
